sensor_id;sensor_type;location;lat;lon;timestamp;pressure;altitude;pressure_sealevel;temperature;humidity
37020;BME280;22932;52.442;16.896;2022-07-23T01:28:52;100575.12;;;21.57;56.76
37020;BME280;22932;52.442;16.896;2022-07-23T01:31:21;100567.92;;;21.55;56.85
37020;BME280;22932;52.442;16.896;2022-07-23T01:33:50;100565.63;;;21.54;57.09
37020;BME280;22932;52.442;16.896;2022-07-23T01:36:20;100566.52;;;21.54;57.19
37020;BME280;22932;52.442;16.896;2022-07-23T01:38:50;100565.72;;;21.53;57.31
37020;BME280;22932;52.442;16.896;2022-07-23T01:41:20;100561.15;;;21.53;57.24
37020;BME280;22932;52.442;16.896;2022-07-23T01:43:49;100557.39;;;21.51;57.17
37020;BME280;22932;52.442;16.896;2022-07-23T01:46:18;100553.41;;;21.48;57.16
37020;BME280;22932;52.442;16.896;2022-07-23T01:48:48;100552.34;;;21.42;57.11
37020;BME280;22932;52.442;16.896;2022-07-23T01:51:17;100549.90;;;21.36;57.24
37020;BME280;22932;52.442;16.896;2022-07-23T01:53:46;100548.55;;;21.31;57.36
37020;BME280;22932;52.442;16.896;2022-07-23T01:56:16;100547.91;;;21.30;57.55
37020;BME280;22932;52.442;16.896;2022-07-23T01:58:47;100548.00;;;21.30;57.63
37020;BME280;22932;52.442;16.896;2022-07-23T02:01:16;100542.11;;;21.25;57.59
37020;BME280;22932;52.442;16.896;2022-07-23T02:03:45;100545.40;;;21.19;57.57
37020;BME280;22932;52.442;16.896;2022-07-23T02:06:15;100549.71;;;21.13;57.84
37020;BME280;22932;52.442;16.896;2022-07-23T02:08:44;100552.33;;;21.10;57.98
37020;BME280;22932;52.442;16.896;2022-07-23T02:11:13;100551.27;;;21.05;58.02
37020;BME280;22932;52.442;16.896;2022-07-23T02:13:42;100546.14;;;21.01;58.18
37020;BME280;22932;52.442;16.896;2022-07-23T02:16:11;100548.61;;;20.98;58.27
37020;BME280;22932;52.442;16.896;2022-07-23T02:18:41;100553.54;;;20.94;58.42
37020;BME280;22932;52.442;16.896;2022-07-23T02:21:10;100559.93;;;20.91;58.47
37020;BME280;22932;52.442;16.896;2022-07-23T02:23:39;100560.82;;;20.89;58.71
37020;BME280;22932;52.442;16.896;2022-07-23T02:26:08;100559.75;;;20.87;58.73
37020;BME280;22932;52.442;16.896;2022-07-23T02:28:37;100562.84;;;20.86;58.86
37020;BME280;22932;52.442;16.896;2022-07-23T02:31:07;100565.52;;;20.85;58.86
37020;BME280;22932;52.442;16.896;2022-07-23T02:33:36;100558.46;;;20.84;58.94
37020;BME280;22932;52.442;16.896;2022-07-23T02:36:06;100557.80;;;20.85;59.29
37020;BME280;22932;52.442;16.896;2022-07-23T02:38:35;100557.85;;;20.86;59.40
37020;BME280;22932;52.442;16.896;2022-07-23T02:41:05;100557.98;;;20.87;59.49
37020;BME280;22932;52.442;16.896;2022-07-23T02:43:34;100550.71;;;20.88;59.57
37020;BME280;22932;52.442;16.896;2022-07-23T02:46:03;100542.05;;;20.87;59.63
37020;BME280;22932;52.442;16.896;2022-07-23T02:48:33;100531.92;;;20.86;59.72
37020;BME280;22932;52.442;16.896;2022-07-23T02:51:02;100529.63;;;20.85;59.84
37020;BME280;22932;52.442;16.896;2022-07-23T02:53:31;100524.95;;;20.86;59.97
37020;BME280;22932;52.442;16.896;2022-07-23T02:56:01;100527.00;;;20.87;60.11
37020;BME280;22932;52.442;16.896;2022-07-23T02:58:30;100522.92;;;20.90;60.09
37020;BME280;22932;52.442;16.896;2022-07-23T03:00:59;100528.98;;;20.93;60.12
37020;BME280;22932;52.442;16.896;2022-07-23T03:03:28;100532.80;;;20.95;60.16
37020;BME280;22932;52.442;16.896;2022-07-23T03:05:58;100537.75;;;20.98;60.08
37020;BME280;22932;52.442;16.896;2022-07-23T03:08:27;100540.54;;;20.99;60.02
37020;BME280;22932;52.442;16.896;2022-07-23T03:10:56;100532.93;;;20.97;59.90
37020;BME280;22932;52.442;16.896;2022-07-23T03:13:25;100532.41;;;20.94;60.03
37020;BME280;22932;52.442;16.896;2022-07-23T03:15:55;100536.83;;;20.91;59.91
37020;BME280;22932;52.442;16.896;2022-07-23T03:18:24;100544.42;;;20.89;60.08
37020;BME280;22932;52.442;16.896;2022-07-23T03:20:54;100546.07;;;20.91;60.27
37020;BME280;22932;52.442;16.896;2022-07-23T03:23:23;100547.45;;;20.94;60.28
37020;BME280;22932;52.442;16.896;2022-07-23T03:25:52;100539.44;;;20.96;60.29
37020;BME280;22932;52.442;16.896;2022-07-23T03:28:21;100541.94;;;21.00;60.17
37020;BME280;22932;52.442;16.896;2022-07-23T03:30:51;100531.13;;;21.02;60.15
37020;BME280;22932;52.442;16.896;2022-07-23T03:33:21;100531.10;;;21.04;60.09
37020;BME280;22932;52.442;16.896;2022-07-23T03:35:51;100538.38;;;21.07;60.14
37020;BME280;22932;52.442;16.896;2022-07-23T03:38:20;100535.23;;;21.10;60.02
37020;BME280;22932;52.442;16.896;2022-07-23T03:40:49;100534.73;;;21.11;59.86
37020;BME280;22932;52.442;16.896;2022-07-23T03:43:18;100531.80;;;21.14;59.77
37020;BME280;22932;52.442;16.896;2022-07-23T03:45:48;100528.98;;;21.13;60.04
37020;BME280;22932;52.442;16.896;2022-07-23T03:48:17;100527.59;;;21.17;60.13
37020;BME280;22932;52.442;16.896;2022-07-23T03:50:46;100527.86;;;21.24;60.01
37020;BME280;22932;52.442;16.896;2022-07-23T03:53:15;100527.46;;;21.30;59.79
37020;BME280;22932;52.442;16.896;2022-07-23T03:55:45;100539.22;;;21.31;59.74
37020;BME280;22932;52.442;16.896;2022-07-23T03:58:14;100544.96;;;21.33;59.83
37020;BME280;22932;52.442;16.896;2022-07-23T04:00:43;100539.30;;;21.37;59.84
37020;BME280;22932;52.442;16.896;2022-07-23T04:03:12;100537.88;;;21.41;59.68
37020;BME280;22932;52.442;16.896;2022-07-23T04:08:11;100539.95;;;21.47;59.61
37020;BME280;22932;52.442;16.896;2022-07-23T04:10:40;100534.73;;;21.46;59.42
37020;BME280;22932;52.442;16.896;2022-07-23T04:13:09;100535.39;;;21.44;59.39
37020;BME280;22932;52.442;16.896;2022-07-23T04:15:38;100538.01;;;21.44;59.33
37020;BME280;22932;52.442;16.896;2022-07-23T04:18:07;100531.80;;;21.45;59.38
37020;BME280;22932;52.442;16.896;2022-07-23T04:20:37;100530.28;;;21.48;59.47
37020;BME280;22932;52.442;16.896;2022-07-23T04:23:06;100534.81;;;21.54;59.56
37020;BME280;22932;52.442;16.896;2022-07-23T04:25:35;100532.16;;;21.61;59.49
37020;BME280;22932;52.442;16.896;2022-07-23T04:28:05;100536.40;;;21.72;59.60
37020;BME280;22932;52.442;16.896;2022-07-23T04:30:34;100534.71;;;21.82;59.49
37020;BME280;22932;52.442;16.896;2022-07-23T04:33:04;100533.96;;;21.87;59.22
37020;BME280;22932;52.442;16.896;2022-07-23T04:35:35;100532.70;;;21.89;59.04
37020;BME280;22932;52.442;16.896;2022-07-23T04:38:05;100527.70;;;21.92;58.94
37020;BME280;22932;52.442;16.896;2022-07-23T04:40:34;100521.56;;;21.96;59.00
37020;BME280;22932;52.442;16.896;2022-07-23T04:43:03;100521.17;;;22.04;59.02
37020;BME280;22932;52.442;16.896;2022-07-23T04:45:33;100517.86;;;22.08;58.80
37020;BME280;22932;52.442;16.896;2022-07-23T04:48:02;100517.23;;;22.11;58.79
37020;BME280;22932;52.442;16.896;2022-07-23T04:50:32;100512.17;;;22.19;58.90
37020;BME280;22932;52.442;16.896;2022-07-23T04:53:01;100509.08;;;22.29;58.81
37020;BME280;22932;52.442;16.896;2022-07-23T04:55:30;100501.90;;;22.38;58.74
37020;BME280;22932;52.442;16.896;2022-07-23T04:58:00;100495.80;;;22.53;58.85
37020;BME280;22932;52.442;16.896;2022-07-23T05:00:29;100497.86;;;22.70;58.70
37020;BME280;22932;52.442;16.896;2022-07-23T05:02:58;100490.52;;;22.84;58.54
37020;BME280;22932;52.442;16.896;2022-07-23T05:05:27;100486.34;;;22.97;58.31
37020;BME280;22932;52.442;16.896;2022-07-23T05:07:57;100484.00;;;23.06;58.04
37020;BME280;22932;52.442;16.896;2022-07-23T05:10:26;100482.14;;;23.15;57.80
37020;BME280;22932;52.442;16.896;2022-07-23T05:12:55;100483.92;;;23.21;57.75
37020;BME280;22932;52.442;16.896;2022-07-23T05:15:25;100482.00;;;23.29;57.73
37020;BME280;22932;52.442;16.896;2022-07-23T05:17:54;100473.15;;;23.35;57.62
37020;BME280;22932;52.442;16.896;2022-07-23T05:20:23;100470.99;;;23.39;57.41
37020;BME280;22932;52.442;16.896;2022-07-23T05:22:53;100465.62;;;23.45;57.35
37020;BME280;22932;52.442;16.896;2022-07-23T05:25:23;100460.09;;;23.48;57.40
37020;BME280;22932;52.442;16.896;2022-07-23T05:27:52;100461.40;;;23.52;57.34
37020;BME280;22932;52.442;16.896;2022-07-23T05:30:22;100464.96;;;23.60;57.26
37020;BME280;22932;52.442;16.896;2022-07-23T05:32:51;100464.20;;;23.62;57.19
37020;BME280;22932;52.442;16.896;2022-07-23T05:35:20;100457.02;;;23.63;57.07
37020;BME280;22932;52.442;16.896;2022-07-23T05:37:49;100460.48;;;23.64;57.10
37020;BME280;22932;52.442;16.896;2022-07-23T05:40:21;100451.48;;;23.64;57.03
37020;BME280;22932;52.442;16.896;2022-07-23T05:42:51;100447.42;;;23.65;57.04
37020;BME280;22932;52.442;16.896;2022-07-23T05:45:20;100445.29;;;23.63;56.99
37020;BME280;22932;52.442;16.896;2022-07-23T05:47:50;100444.30;;;23.63;56.99
37020;BME280;22932;52.442;16.896;2022-07-23T05:50:19;100443.08;;;23.67;57.11
37020;BME280;22932;52.442;16.896;2022-07-23T05:52:49;100445.03;;;23.70;57.01
37020;BME280;22932;52.442;16.896;2022-07-23T05:55:18;100439.52;;;23.74;57.00
37020;BME280;22932;52.442;16.896;2022-07-23T05:57:48;100444.27;;;23.79;56.88
37020;BME280;22932;52.442;16.896;2022-07-23T06:00:17;100441.20;;;23.86;56.92
37020;BME280;22932;52.442;16.896;2022-07-23T06:02:46;100433.67;;;23.92;56.75
37020;BME280;22932;52.442;16.896;2022-07-23T06:05:16;100431.85;;;24.01;56.61
37020;BME280;22932;52.442;16.896;2022-07-23T06:07:45;100423.90;;;24.06;56.48
37020;BME280;22932;52.442;16.896;2022-07-23T06:10:15;100423.54;;;24.12;56.56
37020;BME280;22932;52.442;16.896;2022-07-23T06:12:44;100421.41;;;24.20;56.35
37020;BME280;22932;52.442;16.896;2022-07-23T06:15:14;100424.92;;;24.29;56.20
37020;BME280;22932;52.442;16.896;2022-07-23T06:17:43;100424.25;;;24.36;56.09
37020;BME280;22932;52.442;16.896;2022-07-23T06:20:12;100423.42;;;24.47;56.00
37020;BME280;22932;52.442;16.896;2022-07-23T06:22:42;100427.60;;;24.59;55.99
37020;BME280;22932;52.442;16.896;2022-07-23T06:25:11;100421.44;;;24.69;55.59
37020;BME280;22932;52.442;16.896;2022-07-23T06:27:40;100427.06;;;24.78;55.33
37020;BME280;22932;52.442;16.896;2022-07-23T06:30:12;100425.44;;;24.84;54.97
37020;BME280;22932;52.442;16.896;2022-07-23T06:32:43;100418.84;;;24.91;54.76
37020;BME280;22932;52.442;16.896;2022-07-23T06:35:13;100411.51;;;25.02;54.85
37020;BME280;22932;52.442;16.896;2022-07-23T06:37:42;100406.11;;;25.10;54.53
37020;BME280;22932;52.442;16.896;2022-07-23T06:40:12;100412.91;;;25.18;54.29
37020;BME280;22932;52.442;16.896;2022-07-23T06:42:41;100420.26;;;25.24;53.91
37020;BME280;22932;52.442;16.896;2022-07-23T06:45:11;100423.09;;;25.31;53.59
37020;BME280;22932;52.442;16.896;2022-07-23T06:47:40;100424.48;;;25.34;53.31
37020;BME280;22932;52.442;16.896;2022-07-23T06:50:10;100420.67;;;25.38;53.24
37020;BME280;22932;52.442;16.896;2022-07-23T06:52:39;100416.77;;;25.48;53.25
37020;BME280;22932;52.442;16.896;2022-07-23T06:55:09;100415.52;;;25.57;52.95
37020;BME280;22932;52.442;16.896;2022-07-23T06:57:39;100412.47;;;25.64;52.73
37020;BME280;22932;52.442;16.896;2022-07-23T07:00:10;100415.55;;;25.70;52.42
37020;BME280;22932;52.442;16.896;2022-07-23T07:02:40;100414.73;;;25.77;51.96
37020;BME280;22932;52.442;16.896;2022-07-23T07:05:10;100409.27;;;25.84;51.83
37020;BME280;22932;52.442;16.896;2022-07-23T07:07:39;100412.80;;;25.97;51.72
37020;BME280;22932;52.442;16.896;2022-07-23T07:10:10;100411.71;;;26.11;51.57
37020;BME280;22932;52.442;16.896;2022-07-23T07:12:39;100409.22;;;26.18;51.53
37020;BME280;22932;52.442;16.896;2022-07-23T07:15:09;100414.79;;;26.24;51.41
37020;BME280;22932;52.442;16.896;2022-07-23T07:17:39;100404.16;;;26.27;51.01
37020;BME280;22932;52.442;16.896;2022-07-23T07:20:11;100401.20;;;26.36;50.82
37020;BME280;22932;52.442;16.896;2022-07-23T07:22:40;100406.64;;;26.49;50.46
37020;BME280;22932;52.442;16.896;2022-07-23T07:25:10;100401.89;;;26.52;50.34
37020;BME280;22932;52.442;16.896;2022-07-23T07:27:39;100411.30;;;26.50;50.15
37020;BME280;22932;52.442;16.896;2022-07-23T07:30:11;100418.63;;;26.46;49.82
37020;BME280;22932;52.442;16.896;2022-07-23T07:32:41;100423.16;;;26.48;49.86
37020;BME280;22932;52.442;16.896;2022-07-23T07:35:11;100426.19;;;26.51;49.87
37020;BME280;22932;52.442;16.896;2022-07-23T07:37:40;100420.48;;;26.54;49.78
37020;BME280;22932;52.442;16.896;2022-07-23T07:40:10;100424.44;;;26.52;49.74
37020;BME280;22932;52.442;16.896;2022-07-23T07:42:47;100427.12;;;26.50;49.72
37020;BME280;22932;52.442;16.896;2022-07-23T07:45:16;100433.92;;;26.46;49.79
37020;BME280;22932;52.442;16.896;2022-07-23T07:47:46;100430.67;;;26.39;49.53
37020;BME280;22932;52.442;16.896;2022-07-23T07:50:16;100432.64;;;26.30;49.34
37020;BME280;22932;52.442;16.896;2022-07-23T07:52:45;100437.03;;;26.23;49.49
37020;BME280;22932;52.442;16.896;2022-07-23T07:55:14;100438.13;;;26.18;49.51
37020;BME280;22932;52.442;16.896;2022-07-23T07:57:44;100436.98;;;26.11;49.58
37020;BME280;22932;52.442;16.896;2022-07-23T08:00:14;100432.55;;;26.04;49.60
37020;BME280;22932;52.442;16.896;2022-07-23T08:02:45;100431.98;;;25.98;49.71
37020;BME280;22932;52.442;16.896;2022-07-23T08:05:18;100434.06;;;25.93;49.73
37020;BME280;22932;52.442;16.896;2022-07-23T08:07:47;100443.79;;;25.92;49.83
37020;BME280;22932;52.442;16.896;2022-07-23T08:10:16;100460.48;;;25.92;49.92
37020;BME280;22932;52.442;16.896;2022-07-23T08:12:47;100479.86;;;25.89;49.97
37020;BME280;22932;52.442;16.896;2022-07-23T08:15:18;100502.41;;;25.88;50.02
37020;BME280;22932;52.442;16.896;2022-07-23T08:17:48;100515.38;;;25.87;49.96
37020;BME280;22932;52.442;16.896;2022-07-23T08:20:17;100526.35;;;25.90;50.21
37020;BME280;22932;52.442;16.896;2022-07-23T08:22:49;100522.80;;;25.94;50.77
37020;BME280;22932;52.442;16.896;2022-07-23T08:25:25;100508.93;;;25.95;50.91
37020;BME280;22932;52.442;16.896;2022-07-23T08:27:55;100498.48;;;25.94;51.12
37020;BME280;22932;52.442;16.896;2022-07-23T08:30:24;100501.04;;;25.98;51.53
37020;BME280;22932;52.442;16.896;2022-07-23T08:32:56;100506.25;;;26.00;51.56
37020;BME280;22932;52.442;16.896;2022-07-23T08:35:30;100498.17;;;26.01;51.86
37020;BME280;22932;52.442;16.896;2022-07-23T08:38:01;100495.89;;;25.98;52.10
37020;BME280;22932;52.442;16.896;2022-07-23T08:40:32;100506.44;;;25.99;52.36
37020;BME280;22932;52.442;16.896;2022-07-23T08:43:06;100506.77;;;26.01;52.70
37020;BME280;22932;52.442;16.896;2022-07-23T08:45:37;100508.45;;;26.02;52.65
37020;BME280;22932;52.442;16.896;2022-07-23T08:48:10;100522.23;;;26.04;53.09
37020;BME280;22932;52.442;16.896;2022-07-23T08:50:43;100529.53;;;25.95;53.06
37020;BME280;22932;52.442;16.896;2022-07-23T08:53:14;100519.38;;;25.80;53.11
37020;BME280;22932;52.442;16.896;2022-07-23T08:55:46;100503.59;;;25.64;53.29
37020;BME280;22932;52.442;16.896;2022-07-23T08:58:15;100488.55;;;25.49;53.72
37020;BME280;22932;52.442;16.896;2022-07-23T09:00:46;100477.02;;;25.18;53.99
37020;BME280;22932;52.442;16.896;2022-07-23T09:03:19;100492.41;;;24.82;54.21
37020;BME280;22932;52.442;16.896;2022-07-23T09:05:50;100517.34;;;24.47;55.18
37020;BME280;22932;52.442;16.896;2022-07-23T09:08:21;100532.95;;;24.25;55.82
37020;BME280;22932;52.442;16.896;2022-07-23T09:10:53;100523.61;;;24.16;56.52
37020;BME280;22932;52.442;16.896;2022-07-23T09:13:37;100490.73;;;24.13;57.19
37020;BME280;22932;52.442;16.896;2022-07-23T09:16:08;100470.97;;;23.98;57.84
37020;BME280;22932;52.442;16.896;2022-07-23T09:18:43;100483.48;;;23.69;58.31
37020;BME280;22932;52.442;16.896;2022-07-23T09:21:19;100503.59;;;23.49;58.77
37020;BME280;22932;52.442;16.896;2022-07-23T09:23:51;100523.38;;;23.36;59.65
37020;BME280;22932;52.442;16.896;2022-07-23T09:26:26;100525.84;;;23.21;60.54
37020;BME280;22932;52.442;16.896;2022-07-23T09:29:00;100533.63;;;23.07;61.08
37020;BME280;22932;52.442;16.896;2022-07-23T09:31:44;100539.39;;;23.07;61.78
37020;BME280;22932;52.442;16.896;2022-07-23T09:34:17;100544.81;;;23.01;62.07
37020;BME280;22932;52.442;16.896;2022-07-23T09:36:47;100546.95;;;22.96;62.62
37020;BME280;22932;52.442;16.896;2022-07-23T09:39:24;100542.32;;;22.97;63.00
37020;BME280;22932;52.442;16.896;2022-07-23T09:41:54;100537.06;;;23.06;63.22
37020;BME280;22932;52.442;16.896;2022-07-23T09:44:24;100534.73;;;23.09;63.22
37020;BME280;22932;52.442;16.896;2022-07-23T09:46:59;100530.73;;;23.02;63.28
37020;BME280;22932;52.442;16.896;2022-07-23T09:49:29;100534.72;;;22.97;63.62
37020;BME280;22932;52.442;16.896;2022-07-23T09:51:59;100531.99;;;22.75;63.32
37020;BME280;22932;52.442;16.896;2022-07-23T09:54:32;100528.39;;;22.61;63.72
37020;BME280;22932;52.442;16.896;2022-07-23T09:57:05;100527.80;;;22.44;64.36
37020;BME280;22932;52.442;16.896;2022-07-23T09:59:37;100526.40;;;22.25;64.89
37020;BME280;22932;52.442;16.896;2022-07-23T10:02:08;100516.19;;;22.07;65.60
37020;BME280;22932;52.442;16.896;2022-07-23T10:04:39;100515.77;;;21.95;66.31
37020;BME280;22932;52.442;16.896;2022-07-23T10:07:10;100511.36;;;21.87;66.68
37020;BME280;22932;52.442;16.896;2022-07-23T10:09:40;100507.81;;;21.77;67.13
37020;BME280;22932;52.442;16.896;2022-07-23T10:12:13;100512.04;;;21.66;67.56
37020;BME280;22932;52.442;16.896;2022-07-23T10:14:50;100512.63;;;21.57;67.83
37020;BME280;22932;52.442;16.896;2022-07-23T10:17:20;100513.16;;;21.54;67.90
37020;BME280;22932;52.442;16.896;2022-07-23T10:19:49;100529.16;;;21.56;68.04
37020;BME280;22932;52.442;16.896;2022-07-23T10:22:22;100529.77;;;21.47;67.73
37020;BME280;22932;52.442;16.896;2022-07-23T10:25:05;100524.46;;;21.37;67.50
37020;BME280;22932;52.442;16.896;2022-07-23T10:28:09;100512.40;;;21.34;67.57
37020;BME280;22932;52.442;16.896;2022-07-23T10:30:45;100506.20;;;21.31;68.15
37020;BME280;22932;52.442;16.896;2022-07-23T10:33:26;100507.70;;;21.41;68.48
37020;BME280;22932;52.442;16.896;2022-07-23T10:36:04;100510.52;;;21.62;68.73
37020;BME280;22932;52.442;16.896;2022-07-23T10:38:52;100507.35;;;21.82;68.68
37020;BME280;22932;52.442;16.896;2022-07-23T10:41:35;100492.41;;;21.97;68.40
37020;BME280;22932;52.442;16.896;2022-07-23T10:44:12;100485.54;;;22.26;68.49
37020;BME280;22932;52.442;16.896;2022-07-23T10:47:04;100490.49;;;22.58;68.18
37020;BME280;22932;52.442;16.896;2022-07-23T10:49:42;100493.98;;;22.80;66.92
37020;BME280;22932;52.442;16.896;2022-07-23T10:52:22;100486.93;;;22.95;66.60
37020;BME280;22932;52.442;16.896;2022-07-23T10:54:54;100486.24;;;23.08;65.82
37020;BME280;22932;52.442;16.896;2022-07-23T10:57:24;100482.05;;;23.07;65.20
37020;BME280;22932;52.442;16.896;2022-07-23T11:00:14;100474.54;;;23.10;65.17
37020;BME280;22932;52.442;16.896;2022-07-23T11:02:45;100473.20;;;23.27;65.16
37020;BME280;22932;52.442;16.896;2022-07-23T11:05:17;100472.76;;;23.23;64.41
37020;BME280;22932;52.442;16.896;2022-07-23T11:10:54;100470.84;;;23.05;64.25
37020;BME280;22932;52.442;16.896;2022-07-23T11:13:47;100471.02;;;23.03;64.68
37020;BME280;22932;52.442;16.896;2022-07-23T11:16:26;100474.55;;;22.93;64.62
37020;BME280;22932;52.442;16.896;2022-07-23T11:19:03;100473.08;;;22.93;64.94
37020;BME280;22932;52.442;16.896;2022-07-23T11:21:49;100476.73;;;23.10;65.15
37020;BME280;22932;52.442;16.896;2022-07-23T11:24:23;100483.98;;;23.23;65.17
37020;BME280;22932;52.442;16.896;2022-07-23T11:27:03;100484.06;;;23.38;64.88
37020;BME280;22932;52.442;16.896;2022-07-23T11:29:49;100484.61;;;23.44;64.47
37020;BME280;22932;52.442;16.896;2022-07-23T11:32:32;100496.17;;;23.34;64.00
37020;BME280;22932;52.442;16.896;2022-07-23T11:35:03;100499.63;;;23.30;64.23
37020;BME280;22932;52.442;16.896;2022-07-23T11:37:47;100494.21;;;23.43;64.44
37020;BME280;22932;52.442;16.896;2022-07-23T11:40:18;100493.98;;;23.57;64.48
37020;BME280;22932;52.442;16.896;2022-07-23T11:43:00;100492.96;;;23.64;64.29
37020;BME280;22932;52.442;16.896;2022-07-23T11:45:34;100491.89;;;23.66;64.27
37020;BME280;22932;52.442;16.896;2022-07-23T11:48:05;100496.30;;;23.79;64.20
37020;BME280;22932;52.442;16.896;2022-07-23T11:50:35;100495.95;;;23.94;63.91
37020;BME280;22932;52.442;16.896;2022-07-23T11:53:05;100486.93;;;24.07;63.66
37020;BME280;22932;52.442;16.896;2022-07-23T11:55:34;100488.50;;;23.94;63.27
37020;BME280;22932;52.442;16.896;2022-07-23T11:58:04;100486.38;;;23.93;63.34
37020;BME280;22932;52.442;16.896;2022-07-23T12:00:33;100490.18;;;23.96;62.92
37020;BME280;22932;52.442;16.896;2022-07-23T12:03:04;100493.23;;;23.92;62.82
37020;BME280;22932;52.442;16.896;2022-07-23T12:05:35;100495.30;;;23.97;62.65
37020;BME280;22932;52.442;16.896;2022-07-23T12:08:07;100494.57;;;23.88;62.17
37020;BME280;22932;52.442;16.896;2022-07-23T12:10:38;100498.86;;;23.93;62.64
37020;BME280;22932;52.442;16.896;2022-07-23T12:13:09;100500.17;;;23.98;62.25
37020;BME280;22932;52.442;16.896;2022-07-23T12:15:41;100505.82;;;23.98;62.40
37020;BME280;22932;52.442;16.896;2022-07-23T12:18:12;100501.05;;;24.05;62.43
37020;BME280;22932;52.442;16.896;2022-07-23T12:20:44;100498.20;;;24.15;62.20
37020;BME280;22932;52.442;16.896;2022-07-23T12:23:16;100496.85;;;24.21;61.87
37020;BME280;22932;52.442;16.896;2022-07-23T12:25:47;100490.05;;;24.30;61.66
37020;BME280;22932;52.442;16.896;2022-07-23T12:28:18;100488.85;;;24.36;61.35
37020;BME280;22932;52.442;16.896;2022-07-23T12:30:49;100486.03;;;24.32;60.92
37020;BME280;22932;52.442;16.896;2022-07-23T12:33:30;100475.48;;;24.30;60.97
37020;BME280;22932;52.442;16.896;2022-07-23T12:36:01;100450.55;;;24.43;60.95
37020;BME280;22932;52.442;16.896;2022-07-23T12:38:41;100439.11;;;24.32;59.92
37020;BME280;22932;52.442;16.896;2022-07-23T12:41:11;100444.13;;;24.32;60.40
37020;BME280;22932;52.442;16.896;2022-07-23T12:43:42;100454.95;;;24.41;60.42
37020;BME280;22932;52.442;16.896;2022-07-23T20:47:07;100645.23;;;20.80;57.87
37020;BME280;22932;52.442;16.896;2022-07-23T20:49:36;100648.08;;;20.73;57.95
37020;BME280;22932;52.442;16.896;2022-07-23T20:52:06;100647.38;;;20.69;58.14
37020;BME280;22932;52.442;16.896;2022-07-23T20:54:35;100649.92;;;20.65;58.26
37020;BME280;22932;52.442;16.896;2022-07-23T20:57:04;100651.08;;;20.62;58.46
37020;BME280;22932;52.442;16.896;2022-07-23T20:59:34;100651.30;;;20.57;58.50
37020;BME280;22932;52.442;16.896;2022-07-23T21:02:05;100652.65;;;20.54;58.57
37020;BME280;22932;52.442;16.896;2022-07-23T21:04:34;100653.67;;;20.51;58.72
37020;BME280;22932;52.442;16.896;2022-07-23T21:07:04;100663.70;;;20.46;58.74
37020;BME280;22932;52.442;16.896;2022-07-23T21:09:33;100665.22;;;20.40;58.91
37020;BME280;22932;52.442;16.896;2022-07-23T21:12:02;100670.20;;;20.31;59.03
37020;BME280;22932;52.442;16.896;2022-07-23T21:14:31;100668.80;;;20.25;59.30
37020;BME280;22932;52.442;16.896;2022-07-23T21:17:01;100672.50;;;20.22;59.55
37020;BME280;22932;52.442;16.896;2022-07-23T21:19:30;100672.25;;;20.18;59.66
37020;BME280;22932;52.442;16.896;2022-07-23T21:21:59;100676.17;;;20.13;59.75
37020;BME280;22932;52.442;16.896;2022-07-23T21:24:29;100682.95;;;20.10;59.78
37020;BME280;22932;52.442;16.896;2022-07-23T21:26:58;100689.27;;;19.99;59.95
37020;BME280;22932;52.442;16.896;2022-07-23T21:29:27;100693.51;;;19.86;60.12
37020;BME280;22932;52.442;16.896;2022-07-23T21:31:57;100697.46;;;19.78;60.38
37020;BME280;22932;52.442;16.896;2022-07-23T21:34:26;100699.33;;;19.75;60.65
37020;BME280;22932;52.442;16.896;2022-07-23T21:36:56;100697.77;;;19.72;60.82
37020;BME280;22932;52.442;16.896;2022-07-23T21:39:25;100699.29;;;19.72;61.02
37020;BME280;22932;52.442;16.896;2022-07-23T21:41:54;100700.05;;;19.72;61.18
37020;BME280;22932;52.442;16.896;2022-07-23T21:44:25;100708.32;;;19.69;61.17
37020;BME280;22932;52.442;16.896;2022-07-23T21:46:54;100710.99;;;19.64;61.26
37020;BME280;22932;52.442;16.896;2022-07-23T21:49:23;100714.70;;;19.62;61.46
37020;BME280;22932;52.442;16.896;2022-07-23T21:51:52;100716.49;;;19.60;61.57
37020;BME280;22932;52.442;16.896;2022-07-23T21:54:22;100719.11;;;19.54;61.78
37020;BME280;22932;52.442;16.896;2022-07-23T21:56:51;100721.34;;;19.40;61.96
37020;BME280;22932;52.442;16.896;2022-07-23T21:59:20;100724.21;;;19.29;62.11
37020;BME280;22932;52.442;16.896;2022-07-23T22:01:50;100725.40;;;19.17;62.39
37020;BME280;22932;52.442;16.896;2022-07-23T22:04:19;100731.87;;;19.08;62.64
37020;BME280;22932;52.442;16.896;2022-07-23T22:06:48;100731.73;;;18.96;62.71
37020;BME280;22932;52.442;16.896;2022-07-23T22:09:18;100732.90;;;18.85;62.97
37020;BME280;22932;52.442;16.896;2022-07-23T22:11:47;100733.46;;;18.77;63.17
37020;BME280;22932;52.442;16.896;2022-07-23T22:14:16;100732.77;;;18.68;63.47
37020;BME280;22932;52.442;16.896;2022-07-23T22:16:46;100729.75;;;18.59;63.50
37020;BME280;22932;52.442;16.896;2022-07-23T22:19:15;100732.06;;;18.53;63.59
37020;BME280;22932;52.442;16.896;2022-07-23T22:21:44;100728.45;;;18.47;63.60
37020;BME280;22932;52.442;16.896;2022-07-23T22:24:15;100725.73;;;18.41;63.73
37020;BME280;22932;52.442;16.896;2022-07-23T22:26:46;100728.94;;;18.36;63.82
37020;BME280;22932;52.442;16.896;2022-07-23T22:29:15;100729.00;;;18.30;63.73
37020;BME280;22932;52.442;16.896;2022-07-23T22:31:45;100729.88;;;18.26;63.91
37020;BME280;22932;52.442;16.896;2022-07-23T22:34:14;100731.89;;;18.23;63.87